createdAt,value
2023-05-09T00:01:51.420Z,99036.59
2023-05-09T00:04:18.646Z,99040.06
2023-05-09T00:06:46.629Z,99040.09
2023-05-09T00:09:13.952Z,99043.78
2023-05-09T00:11:41.573Z,99039.66
2023-05-09T00:14:09.168Z,99044.78
2023-05-09T00:16:37.935Z,99034.47
2023-05-09T00:19:05.433Z,99030.31
2023-05-09T00:21:34.266Z,99039.72
2023-05-09T00:24:01.688Z,99033.81
2023-05-09T00:26:29.478Z,99040.78
2023-05-09T00:28:56.773Z,99029.28
2023-05-09T00:31:24.288Z,99026.56
2023-05-09T00:33:51.591Z,99024.38
2023-05-09T00:36:19.078Z,99021.06
2023-05-09T00:38:46.390Z,99016.84
2023-05-09T00:41:13.955Z,99017.13
2023-05-09T00:43:41.326Z,99011.22
2023-05-09T00:46:09.050Z,99016.47
2023-05-09T00:48:36.530Z,99008.91
2023-05-09T00:51:04.983Z,99006.59
2023-05-09T00:53:32.574Z,99009.41
2023-05-09T00:56:01.424Z,99009.41
2023-05-09T00:58:30.063Z,99003.41
2023-05-09T01:00:57.793Z,99007.09
2023-05-09T01:03:25.450Z,99006.31
2023-05-09T01:06:07.009Z,99000.16
2023-05-09T01:09:03.430Z,98989.09
2023-05-09T01:12:05.286Z,98993.63
2023-05-09T01:14:57.409Z,98984.50
2023-05-09T01:18:06.773Z,98996.88
2023-05-09T01:20:57.200Z,98988.78
2023-05-09T01:24:04.709Z,98992.16
2023-05-09T01:26:48.051Z,99001.69
2023-05-09T01:29:38.387Z,98998.19
2023-05-09T01:32:15.686Z,98996.50
2023-05-09T01:34:45.496Z,98986.19
2023-05-09T01:37:16.502Z,98989.69
2023-05-09T01:39:53.562Z,98990.34
2023-05-09T01:42:22.917Z,98992.22
2023-05-09T01:44:52.402Z,98992.81
2023-05-09T01:47:21.350Z,98989.34
2023-05-09T01:49:50.091Z,98989.97
2023-05-09T01:52:20.648Z,98980.66
2023-05-09T01:54:50.940Z,98983.31
2023-05-09T01:57:20.727Z,98982.47
2023-05-09T01:59:50.989Z,98973.31
2023-05-09T02:02:19.342Z,98980.84
2023-05-09T02:04:49.077Z,98983.69
2023-05-09T02:07:16.863Z,98976.09
2023-05-09T02:09:46.428Z,98979.66
2023-05-09T02:12:13.756Z,98973.31
2023-05-09T02:14:41.723Z,98975.75
2023-05-09T02:17:09.993Z,98974.91
2023-05-09T02:19:37.643Z,98974.06
2023-05-09T02:22:05.329Z,98970.72
2023-05-09T02:24:34.555Z,98973.38
2023-05-09T02:27:07.263Z,98968.00
2023-05-09T02:29:49.353Z,98974.63
2023-05-09T02:32:32.479Z,98965.25
2023-05-09T02:35:02.516Z,98966.16
2023-05-09T02:37:30.676Z,98962.75
2023-05-09T02:39:59.132Z,98965.78
2023-05-09T02:42:27.253Z,98967.25
2023-05-09T02:44:55.828Z,98957.16
2023-05-09T02:47:23.462Z,98956.59
2023-05-09T02:49:51.094Z,98960.25
2023-05-09T02:52:18.544Z,98962.16
2023-05-09T02:54:46.147Z,98960.34
2023-05-09T02:57:13.452Z,98955.38
2023-05-09T02:59:41.070Z,98958.78
2023-05-09T03:02:08.454Z,98962.28
2023-05-09T03:04:36.090Z,98962.41
2023-05-09T03:07:03.422Z,98962.34
2023-05-09T03:09:31.283Z,98959.03
2023-05-09T03:11:59.726Z,98958.66
2023-05-09T03:14:27.331Z,98955.41
2023-05-09T03:16:54.579Z,98956.22
2023-05-09T03:19:22.316Z,98965.06
2023-05-09T03:21:49.633Z,98963.16
2023-05-09T03:24:17.419Z,98970.03
2023-05-09T03:26:44.725Z,98969.38
2023-05-09T03:29:12.276Z,98962.44
2023-05-09T03:31:39.584Z,98970.34
2023-05-09T03:34:07.330Z,98959.25
2023-05-09T03:36:34.609Z,98956.91
2023-05-09T03:39:02.173Z,98956.16
2023-05-09T03:41:29.563Z,98954.75
2023-05-09T03:43:57.163Z,98952.88
2023-05-09T03:46:24.492Z,98954.38
2023-05-09T03:48:52.129Z,98959.25
2023-05-09T03:51:19.475Z,98953.13
2023-05-09T03:53:48.276Z,98954.56
2023-05-09T03:56:15.764Z,98952.81
2023-05-09T03:58:43.407Z,98945.78
2023-05-09T04:01:10.905Z,98953.28
2023-05-09T04:03:38.585Z,98960.78
2023-05-09T04:06:07.065Z,98962.09
2023-05-09T04:08:34.977Z,98966.38
2023-05-09T04:11:02.364Z,98965.88
2023-05-09T04:13:31.017Z,98960.44
2023-05-09T04:15:58.333Z,98961.84
2023-05-09T04:18:26.070Z,98958.22
2023-05-09T04:20:53.656Z,98966.78
2023-05-09T04:23:21.405Z,98963.91
2023-05-09T04:25:51.417Z,98965.47
2023-05-09T04:28:19.038Z,98967.59
2023-05-09T04:30:46.489Z,98964.06
2023-05-09T04:33:14.112Z,98966.41
2023-05-09T04:35:44.107Z,98959.47
2023-05-09T04:38:11.670Z,98965.22
2023-05-09T04:40:39.012Z,98958.31
2023-05-09T04:43:06.724Z,98950.44
2023-05-09T04:45:34.049Z,98946.09
2023-05-09T04:48:01.692Z,98947.31
2023-05-09T04:50:29.312Z,98945.69
2023-05-09T04:52:56.895Z,98935.72
2023-05-09T04:55:24.205Z,98940.06
2023-05-09T04:57:51.847Z,98940.09
2023-05-09T05:00:19.522Z,98942.41
2023-05-09T05:02:47.158Z,98940.16
2023-05-09T05:05:14.678Z,98937.56
2023-05-09T05:07:42.434Z,98934.06
2023-05-09T05:10:10.353Z,98938.56
2023-05-09T05:12:39.298Z,98935.50
2023-05-09T05:15:07.109Z,98927.09
2023-05-09T05:17:34.765Z,98930.03
2023-05-09T05:20:02.131Z,98927.38
2023-05-09T05:22:31.633Z,98928.56
2023-05-09T05:25:00.130Z,98934.16
2023-05-09T05:27:27.834Z,98936.72
2023-05-09T05:29:55.231Z,98933.09
2023-05-09T05:32:22.949Z,98940.00
2023-05-09T05:34:50.189Z,98930.59
2023-05-09T05:37:17.833Z,98940.69
2023-05-09T05:39:45.316Z,98930.69
2023-05-09T05:42:12.940Z,98934.97
2023-05-09T05:44:40.227Z,98942.78
2023-05-09T05:47:07.936Z,98936.81
2023-05-09T05:49:35.160Z,98934.25
2023-05-09T05:52:03.053Z,98932.34
2023-05-09T05:54:30.364Z,98933.03
2023-05-09T05:56:57.982Z,98932.38
2023-05-09T05:59:25.328Z,98920.91
2023-05-09T06:01:53.091Z,98935.00
2023-05-09T06:04:21.051Z,98930.19
2023-05-09T06:06:48.871Z,98910.72
2023-05-09T06:09:16.276Z,98930.38
2023-05-09T06:11:44.180Z,98929.03
2023-05-09T06:14:11.495Z,98925.88
2023-05-09T06:16:39.331Z,98902.78
2023-05-09T06:19:06.764Z,98932.34
2023-05-09T06:21:34.509Z,98899.13
2023-05-09T06:24:10.255Z,98929.22
2023-05-09T06:26:40.129Z,98919.28
2023-05-09T06:29:07.984Z,98911.75
2023-05-09T06:31:38.660Z,98909.19
2023-05-09T06:34:07.625Z,98910.88
2023-05-09T06:36:35.894Z,98923.34
2023-05-09T06:39:03.398Z,98912.91
2023-05-09T06:41:30.978Z,98906.25
2023-05-09T06:43:58.320Z,98900.75
2023-05-09T06:46:26.546Z,98887.81
2023-05-09T06:48:54.318Z,98904.53
2023-05-09T06:51:22.338Z,98904.28
2023-05-09T06:53:49.662Z,98888.91
2023-05-09T06:56:20.222Z,98903.66
2023-05-09T06:58:47.798Z,98904.13
2023-05-09T07:01:15.532Z,98899.28
2023-05-09T07:03:43.137Z,98894.75
2023-05-09T07:06:11.896Z,98884.97
2023-05-09T07:08:40.550Z,98893.47
2023-05-09T07:11:08.217Z,98881.50
2023-05-09T07:13:35.630Z,98882.97
2023-05-09T07:16:04.093Z,98880.75
2023-05-09T07:18:31.404Z,98879.50
2023-05-09T07:20:59.028Z,98876.19
2023-05-09T07:23:27.206Z,98876.97
2023-05-09T07:25:59.092Z,98874.13
2023-05-09T07:28:26.501Z,98878.81
2023-05-09T07:30:57.400Z,98869.66
2023-05-09T07:33:24.869Z,98879.66
2023-05-09T07:35:53.148Z,98872.69
2023-05-09T07:38:20.532Z,98874.88
2023-05-09T07:40:49.566Z,98871.25
2023-05-09T07:43:16.838Z,98854.59
2023-05-09T07:45:44.651Z,98851.72
2023-05-09T07:48:12.680Z,98844.78
2023-05-09T07:50:40.932Z,98843.63
2023-05-09T07:53:08.438Z,98837.16
2023-05-09T07:55:36.635Z,98854.06
2023-05-09T07:58:05.358Z,98856.16
2023-05-09T08:00:32.953Z,98836.72
2023-05-09T08:03:01.189Z,98857.81
2023-05-09T08:05:28.957Z,98843.97
2023-05-09T08:07:56.325Z,98837.88
2023-05-09T08:10:24.257Z,98844.69
2023-05-09T08:12:51.700Z,98850.84
2023-05-09T08:15:21.526Z,98842.78
2023-05-09T08:17:49.016Z,98838.69
2023-05-09T08:20:17.430Z,98837.06
2023-05-09T08:22:44.730Z,98822.25
2023-05-09T08:25:18.303Z,98833.75
2023-05-09T08:27:45.645Z,98839.72
2023-05-09T08:30:14.121Z,98825.97
2023-05-09T08:32:41.563Z,98833.31
2023-05-09T08:35:09.525Z,98829.38
2023-05-09T08:37:37.283Z,98829.69
2023-05-09T08:40:10.129Z,98836.94
2023-05-09T08:42:38.707Z,98829.00
2023-05-09T08:45:17.009Z,98816.91
2023-05-09T08:47:45.875Z,98821.03
2023-05-09T08:50:15.702Z,98817.88
2023-05-09T08:52:43.628Z,98830.34
2023-05-09T08:55:12.734Z,98819.34
2023-05-09T08:57:40.510Z,98819.94
2023-05-09T09:00:12.278Z,98820.63
2023-05-09T09:02:44.644Z,98827.53
2023-05-09T09:05:23.847Z,98826.44
2023-05-09T09:08:01.073Z,98816.53
2023-05-09T09:10:32.886Z,98807.97
2023-05-09T09:13:05.056Z,98798.50
2023-05-09T09:15:38.241Z,98820.75
2023-05-09T09:18:10.409Z,98825.81
2023-05-09T09:20:50.004Z,98812.00
2023-05-09T09:23:26.367Z,98822.75
2023-05-09T09:26:07.017Z,98807.50
2023-05-09T09:28:34.809Z,98830.34
2023-05-09T09:31:02.607Z,98827.13
2023-05-09T09:33:30.108Z,98819.25
2023-05-09T09:35:57.888Z,98830.28
2023-05-09T09:38:25.751Z,98838.16
2023-05-09T09:40:57.237Z,98824.00
2023-05-09T09:43:31.989Z,98801.03
2023-05-09T09:46:04.299Z,98822.38
2023-05-09T09:48:34.994Z,98823.22
2023-05-09T09:51:15.038Z,98819.19
2023-05-09T09:53:43.736Z,98810.19
2023-05-09T09:56:11.870Z,98796.59
2023-05-09T09:58:39.551Z,98805.84
2023-05-09T10:01:14.225Z,98790.34
2023-05-09T10:03:47.313Z,98811.25
2023-05-09T10:06:16.913Z,98806.34
2023-05-09T10:08:49.358Z,98807.63
2023-05-09T10:11:17.129Z,98797.34
2023-05-09T10:13:45.978Z,98788.44
2023-05-09T10:16:14.893Z,98773.59
2023-05-09T10:18:43.300Z,98781.16
2023-05-09T10:21:15.467Z,98746.03
2023-05-09T10:23:52.447Z,98783.09
2023-05-09T10:26:30.627Z,98768.09
2023-05-09T10:29:07.452Z,98787.19
2023-05-09T10:31:40.857Z,98758.44
2023-05-09T10:34:13.166Z,98753.00
2023-05-09T10:36:40.885Z,98747.03
2023-05-09T10:39:08.936Z,98755.47
2023-05-09T10:41:38.907Z,98759.31
2023-05-09T10:44:07.265Z,98741.38
2023-05-09T10:46:36.233Z,98754.19
2023-05-09T10:49:04.657Z,98741.06
2023-05-09T10:51:33.158Z,98730.56
2023-05-09T10:54:01.465Z,98731.91
2023-05-09T10:56:40.053Z,98729.81
2023-05-09T10:59:33.492Z,98726.34
2023-05-09T11:02:03.040Z,98706.28
2023-05-09T11:04:32.826Z,98723.81
2023-05-09T11:07:01.305Z,98706.53
2023-05-09T11:09:38.196Z,98709.63
2023-05-09T11:12:06.191Z,98705.53
2023-05-09T11:14:58.165Z,98700.16
2023-05-09T11:17:25.862Z,98711.66
2023-05-09T11:19:53.098Z,98688.19
2023-05-09T11:22:38.775Z,98695.25
2023-05-09T11:25:11.368Z,98702.41
2023-05-09T11:27:50.299Z,98692.31
2023-05-09T11:30:21.007Z,98694.06
2023-05-09T11:32:59.056Z,98685.94
2023-05-09T11:35:27.400Z,98685.66
2023-05-09T11:38:04.588Z,98680.31
2023-05-09T11:40:35.007Z,98665.00
2023-05-09T11:43:02.768Z,98669.13
2023-05-09T11:45:33.119Z,98666.56
2023-05-09T11:48:02.254Z,98661.16
2023-05-09T11:50:30.019Z,98655.88
2023-05-09T11:52:58.700Z,98652.44
2023-05-09T11:55:30.185Z,98644.50
2023-05-09T11:57:59.468Z,98644.50
2023-05-09T12:00:26.955Z,98643.69
2023-05-09T12:02:54.911Z,98644.19
2023-05-09T12:05:23.871Z,98638.84
2023-05-09T12:07:52.590Z,98635.69
2023-05-09T12:10:23.262Z,98639.00
2023-05-09T12:12:55.867Z,98634.31
2023-05-09T12:15:23.925Z,98635.47
2023-05-09T12:18:07.195Z,98630.09
2023-05-09T12:20:52.641Z,98625.34
2023-05-09T12:23:20.523Z,98621.91
2023-05-09T12:25:52.874Z,98626.91
2023-05-09T12:28:23.875Z,98619.16
2023-05-09T12:30:53.314Z,98620.88
2023-05-09T12:33:23.753Z,98613.38
2023-05-09T12:36:07.964Z,98608.41
2023-05-09T12:38:35.696Z,98604.47
2023-05-09T12:41:29.594Z,98610.88
2023-05-09T12:43:58.882Z,98600.66
2023-05-09T12:46:27.586Z,98604.16
2023-05-09T12:48:55.309Z,98589.31
2023-05-09T12:51:23.403Z,98596.97
2023-05-09T12:53:51.380Z,98590.53
2023-05-09T12:56:25.523Z,98594.84
2023-05-09T12:58:55.535Z,98591.25
2023-05-09T13:01:29.872Z,98584.31
2023-05-09T13:04:07.527Z,98576.53
2023-05-09T13:06:36.413Z,98572.44
2023-05-09T13:09:08.431Z,98566.06
2023-05-09T13:11:37.878Z,98560.03
2023-05-09T13:14:05.643Z,98565.19
2023-05-09T13:16:33.280Z,98570.31
2023-05-09T13:19:01.831Z,98551.03
2023-05-09T13:21:29.233Z,98551.34
2023-05-09T13:23:56.872Z,98543.31
2023-05-09T13:26:24.301Z,98546.25
2023-05-09T13:28:52.140Z,98544.03
2023-05-09T13:31:20.249Z,98545.63
2023-05-09T13:33:50.027Z,98542.03
2023-05-09T13:36:19.492Z,98529.97
2023-05-09T13:38:47.208Z,98533.81
2023-05-09T13:41:20.441Z,98534.81
2023-05-09T13:43:48.685Z,98538.63
2023-05-09T13:46:18.557Z,98532.00
2023-05-09T13:48:47.802Z,98517.41
2023-05-09T13:51:15.214Z,98526.41
2023-05-09T13:53:42.816Z,98526.28
2023-05-09T13:56:10.129Z,98512.47
2023-05-09T13:58:37.772Z,98517.25
2023-05-09T14:01:05.268Z,98501.84
2023-05-09T14:03:33.020Z,98514.34
2023-05-09T14:06:00.347Z,98512.75
2023-05-09T14:08:28.040Z,98503.00
2023-05-09T14:10:55.507Z,98504.81
2023-05-09T14:13:23.273Z,98495.41
2023-05-09T14:15:50.748Z,98495.31
2023-05-09T14:18:20.707Z,98492.16
2023-05-09T14:20:48.672Z,98486.69
2023-05-09T14:23:16.459Z,98487.69
2023-05-09T14:25:43.720Z,98492.88
2023-05-09T14:28:12.058Z,98485.56
2023-05-09T14:30:39.352Z,98487.88
2023-05-09T14:33:16.090Z,98483.09
2023-05-09T14:35:43.363Z,98487.38
2023-05-09T14:38:12.603Z,98489.56
2023-05-09T14:40:39.928Z,98486.84
2023-05-09T14:43:07.740Z,98480.44
2023-05-09T14:45:35.319Z,98479.88
2023-05-09T14:48:05.932Z,98479.72
2023-05-09T14:50:33.543Z,98467.44
2023-05-09T14:53:02.720Z,98472.38
2023-05-09T14:55:31.346Z,98468.31
2023-05-09T14:57:59.173Z,98466.44
2023-05-09T15:00:27.207Z,98458.88
2023-05-09T15:02:55.167Z,98459.56
2023-05-09T15:05:22.623Z,98454.94
2023-05-09T15:07:50.576Z,98450.72
2023-05-09T15:10:18.287Z,98448.66
2023-05-09T15:12:46.141Z,98448.16
2023-05-09T15:15:23.597Z,98450.91
2023-05-09T15:17:53.077Z,98433.28
2023-05-09T15:20:20.972Z,98433.38
2023-05-09T15:22:49.995Z,98437.53
2023-05-09T15:25:18.171Z,98433.06
2023-05-09T15:27:45.541Z,98426.16
2023-05-09T15:30:14.273Z,98418.66
2023-05-09T15:32:42.002Z,98413.81
2023-05-09T15:35:10.630Z,98414.19
2023-05-09T15:37:38.013Z,98413.84
2023-05-09T15:40:06.651Z,98423.44
2023-05-09T15:42:34.206Z,98410.06
2023-05-09T15:45:01.949Z,98416.59
2023-05-09T15:47:29.357Z,98424.16
2023-05-09T15:49:56.928Z,98416.22
2023-05-09T15:52:25.281Z,98414.19
2023-05-09T15:54:55.194Z,98415.25
2023-05-09T15:57:23.167Z,98412.13
2023-05-09T15:59:50.822Z,98416.38
2023-05-09T16:02:18.133Z,98401.75
2023-05-09T16:04:45.855Z,98396.72
2023-05-09T16:07:13.308Z,98404.44
2023-05-09T16:09:41.368Z,98394.22
2023-05-09T16:12:09.447Z,98402.16
2023-05-09T16:14:37.101Z,98395.66
2023-05-09T16:17:04.685Z,98372.28
2023-05-09T16:19:33.741Z,98373.38
2023-05-09T16:22:03.097Z,98385.41
2023-05-09T16:24:32.232Z,98371.31
2023-05-09T16:26:59.752Z,98383.66
2023-05-09T16:29:28.586Z,98381.09
2023-05-09T16:31:56.020Z,98382.66
2023-05-09T16:34:23.647Z,98374.81
2023-05-09T16:36:52.410Z,98365.75
2023-05-09T16:39:20.028Z,98371.72
2023-05-09T16:41:47.287Z,98368.09
2023-05-09T16:44:15.916Z,98371.06
2023-05-09T16:46:43.315Z,98359.16
2023-05-09T16:49:11.298Z,98357.66
2023-05-09T16:51:38.884Z,98369.38
2023-05-09T16:54:06.788Z,98360.88
2023-05-09T16:56:35.324Z,98358.22
2023-05-09T16:59:03.728Z,98360.47
2023-05-09T17:01:31.157Z,98362.16
2023-05-09T17:03:59.024Z,98356.31
2023-05-09T17:06:30.061Z,98357.72
2023-05-09T17:08:59.928Z,98348.25
2023-05-09T17:11:27.272Z,98351.59
2023-05-09T17:13:54.841Z,98347.84
2023-05-09T17:16:22.221Z,98347.59
2023-05-09T17:18:49.801Z,98349.66
2023-05-09T17:21:17.518Z,98342.72
2023-05-09T17:23:45.102Z,98337.44
2023-05-09T17:26:12.430Z,98337.88
2023-05-09T17:28:40.118Z,98344.78
2023-05-09T17:31:07.567Z,98352.03
2023-05-09T17:33:35.239Z,98348.81
2023-05-09T17:36:02.652Z,98335.38
2023-05-09T17:38:30.355Z,98337.28
2023-05-09T17:40:57.647Z,98352.56
2023-05-09T17:43:27.935Z,98353.25
2023-05-09T17:45:55.271Z,98343.53
2023-05-09T17:48:22.934Z,98344.13
2023-05-09T17:50:50.830Z,98341.28
2023-05-09T17:53:18.460Z,98349.28
2023-05-09T17:55:45.866Z,98347.59
2023-05-09T17:58:20.880Z,98339.66
2023-05-09T18:00:48.116Z,98341.97
2023-05-09T18:03:16.340Z,98341.69
2023-05-09T18:05:43.779Z,98341.22
2023-05-09T18:08:11.363Z,98339.38
2023-05-09T18:10:38.722Z,98331.09
2023-05-09T18:13:06.745Z,98335.81
2023-05-09T18:15:38.120Z,98336.09
2023-05-09T18:18:07.992Z,98335.25
2023-05-09T18:20:36.017Z,98336.03
2023-05-09T18:23:03.720Z,98341.25
2023-05-09T18:25:31.267Z,98339.50
2023-05-09T18:27:59.103Z,98339.09
2023-05-09T18:30:27.859Z,98337.56
2023-05-09T18:33:00.210Z,98338.78
2023-05-09T18:35:27.874Z,98342.50
2023-05-09T18:37:55.416Z,98346.84
2023-05-09T18:40:22.726Z,98336.69
2023-05-09T18:42:52.075Z,98338.03
2023-05-09T18:45:19.394Z,98343.69
2023-05-09T18:47:46.950Z,98344.88
2023-05-09T18:50:14.538Z,98345.47
2023-05-09T18:52:44.401Z,98353.59
2023-05-09T18:55:13.362Z,98350.50
2023-05-09T18:57:41.082Z,98355.06
2023-05-09T19:00:09.154Z,98347.06
2023-05-09T19:02:36.708Z,98341.56
2023-05-09T19:05:07.297Z,98351.00
2023-05-09T19:07:38.960Z,98350.41
2023-05-09T19:10:08.441Z,98347.44
2023-05-09T19:12:44.460Z,98345.78
2023-05-09T19:15:12.555Z,98349.22
2023-05-09T19:17:40.392Z,98352.19
2023-05-09T19:20:08.828Z,98349.94
2023-05-09T19:22:36.637Z,98347.66
2023-05-09T19:25:04.582Z,98345.16
2023-05-09T19:27:33.564Z,98345.75
2023-05-09T19:30:00.901Z,98347.06
2023-05-09T19:32:28.534Z,98341.94
2023-05-09T19:34:56.088Z,98342.66
2023-05-09T19:37:23.682Z,98343.00
2023-05-09T19:39:52.138Z,98340.84
2023-05-09T19:42:19.809Z,98337.41
2023-05-09T19:44:47.447Z,98342.13
2023-05-09T19:47:15.159Z,98336.19
2023-05-09T19:49:43.151Z,98336.81
2023-05-09T19:52:10.844Z,98340.34
2023-05-09T19:54:38.104Z,98339.88
2023-05-09T19:57:06.612Z,98337.50
2023-05-09T19:59:34.202Z,98339.50
2023-05-09T20:02:04.843Z,98335.34
2023-05-09T20:04:37.290Z,98335.91
2023-05-09T20:07:05.652Z,98334.97
2023-05-09T20:09:33.220Z,98339.94
2023-05-09T20:12:03.691Z,98342.81
2023-05-09T20:14:32.052Z,98339.47
2023-05-09T20:16:59.838Z,98335.72
2023-05-09T20:19:27.196Z,98333.09
2023-05-09T20:21:54.873Z,98333.81
2023-05-09T20:24:22.289Z,98330.22
2023-05-09T20:26:51.983Z,98328.56
2023-05-09T20:29:19.242Z,98337.91
2023-05-09T20:31:47.419Z,98336.72
2023-05-09T20:34:17.908Z,98338.63
2023-05-09T20:36:53.392Z,98331.84
2023-05-09T20:39:21.702Z,98334.53
2023-05-09T20:41:50.881Z,98335.03
2023-05-09T20:44:19.299Z,98337.84
2023-05-09T20:46:47.058Z,98335.56
2023-05-09T20:49:15.562Z,98333.75
2023-05-09T20:51:43.195Z,98333.78
2023-05-09T20:54:10.995Z,98329.63
2023-05-09T20:56:41.017Z,98331.50
2023-05-09T20:59:08.765Z,98331.72
2023-05-09T21:01:40.296Z,98324.44
2023-05-09T21:04:08.563Z,98333.03
2023-05-09T21:06:37.158Z,98328.22
2023-05-09T21:09:09.475Z,98316.19
2023-05-09T21:11:38.467Z,98321.53
2023-05-09T21:14:08.805Z,98325.94
2023-05-09T21:16:36.474Z,98322.47
2023-05-09T21:19:05.326Z,98319.38
2023-05-09T21:21:34.546Z,98310.44
2023-05-09T21:24:04.345Z,98316.28
2023-05-09T21:26:32.537Z,98317.47
2023-05-09T21:28:59.807Z,98312.00
2023-05-09T21:31:27.407Z,98314.50
2023-05-09T21:33:54.741Z,98314.84
2023-05-09T21:36:22.350Z,98312.84
2023-05-09T21:38:49.600Z,98314.63
2023-05-09T21:41:17.525Z,98310.13
2023-05-09T21:43:44.890Z,98310.44
2023-05-09T21:46:12.620Z,98312.00
2023-05-09T21:48:41.397Z,98310.34
2023-05-09T21:51:09.055Z,98309.44
2023-05-09T21:53:36.401Z,98308.50
2023-05-09T21:56:04.274Z,98310.22
2023-05-09T21:58:32.283Z,98305.66
2023-05-09T22:00:59.881Z,98310.34
2023-05-09T22:03:27.361Z,98305.25
2023-05-09T22:05:55.122Z,98302.00
2023-05-09T22:08:23.543Z,98307.25
2023-05-09T22:10:51.574Z,98303.28
2023-05-09T22:13:18.994Z,98305.06
2023-05-09T22:15:46.682Z,98302.88
2023-05-09T22:18:14.037Z,98296.72
2023-05-09T22:20:49.094Z,98297.66
2023-05-09T22:23:16.408Z,98291.78
2023-05-09T22:25:45.340Z,98287.09
2023-05-09T22:28:12.667Z,98297.97
2023-05-09T22:30:40.218Z,98290.44
2023-05-09T22:33:07.577Z,98295.84
2023-05-09T22:35:35.269Z,98290.63
2023-05-09T22:38:03.623Z,98284.56
2023-05-09T22:40:31.284Z,98293.16
2023-05-09T22:42:58.768Z,98285.31
2023-05-09T22:45:26.506Z,98293.50
2023-05-09T22:47:53.887Z,98282.94
2023-05-09T22:50:21.578Z,98276.56
2023-05-09T22:52:48.987Z,98280.53
2023-05-09T22:55:16.632Z,98285.97
2023-05-09T22:57:43.937Z,98276.88
2023-05-09T23:00:12.293Z,98274.88
2023-05-09T23:02:39.751Z,98286.78
2023-05-09T23:05:08.966Z,98279.16
2023-05-09T23:07:36.451Z,98274.34
2023-05-09T23:10:05.087Z,98284.28
2023-05-09T23:12:32.520Z,98281.47
2023-05-09T23:15:00.079Z,98277.78
2023-05-09T23:17:27.731Z,98277.56
2023-05-09T23:19:55.500Z,98272.25
2023-05-09T23:22:22.881Z,98274.47
2023-05-09T23:24:50.524Z,98270.34
2023-05-09T23:27:18.013Z,98269.13
2023-05-09T23:29:45.561Z,98268.56
2023-05-09T23:32:12.898Z,98261.88
2023-05-09T23:34:40.461Z,98261.88
2023-05-09T23:37:08.831Z,98258.75
2023-05-09T23:39:36.353Z,98259.25
2023-05-09T23:42:04.257Z,98255.91
2023-05-09T23:44:31.886Z,98262.31
2023-05-09T23:46:59.272Z,98263.69
2023-05-09T23:49:27.361Z,98260.75
2023-05-09T23:51:54.656Z,98261.13
2023-05-09T23:54:22.759Z,98263.97
2023-05-09T23:56:50.264Z,98257.25
2023-05-09T23:59:17.809Z,98250.56
